<?xml version="1.0" encoding="UTF-8" standalone="no" ?>
<gpx xmlns="http://www.topografix.com/GPX/1/1" xmlns:xsi="http://www.w3.org/2001/XMLSchema-instance" xsi:schemaLocation="http://www.topografix.com/GPX/1/1 http://www.topografix.com/GPX/1/1/gpx.xsd" version="1.1" creator="VisuGPX - https://www.visugpx.com">
  <metadata>
    <name>4ème étape du TMB</name>
    <desc><![CDATA[Étape 4 col de seigne courmayeur]]></desc>
  </metadata>
  <wpt lat="45.77249" lon="6.86158">
    <ele>1971</ele>
    <name><![CDATA[Lac Combal]]></name>
  </wpt>
  <wpt lat="45.79187" lon="6.94649">
    <ele>1723</ele>
    <name><![CDATA[Plan Chécrouit]]></name>
  </wpt>
  <wpt lat="45.78999" lon="6.96435">
    <ele>1214</ele>
    <name><![CDATA[Dolonne]]></name>
  </wpt>
  <wpt lat="45.79106" lon="6.9705">
    <ele>1209</ele>
    <name><![CDATA[Courmayeur]]></name>
  </wpt>
  <wpt lat="45.79142" lon="6.97098">
    <ele>1214</ele>
    <name><![CDATA[Courmayeur > car en direction du Val Ferret]]></name>
  </wpt>
  <trk>
    <name><![CDATA[4ème étape du TMB]]></name>
    <trkseg>
      <trkpt lat="45.76725" lon="6.83714">
        <ele>2190</ele>
        <time>2021-05-11T11:50:16+02:00</time>
      </trkpt>
      <trkpt lat="45.76714" lon="6.83798">
        <ele>2171</ele>
        <time>2021-05-11T11:50:21+02:00</time>
      </trkpt>
      <trkpt lat="45.76641" lon="6.83771">
        <ele>2171</ele>
        <time>2021-05-11T11:50:26+02:00</time>
      </trkpt>
      <trkpt lat="45.76633" lon="6.83792">
        <ele>2166</ele>
        <time>2021-05-11T11:50:31+02:00</time>
      </trkpt>
      <trkpt lat="45.76667" lon="6.83812">
        <ele>2166</ele>
        <time>2021-05-11T11:50:36+02:00</time>
      </trkpt>
      <trkpt lat="45.7667" lon="6.83842">
        <ele>2158</ele>
        <time>2021-05-11T11:50:41+02:00</time>
      </trkpt>
      <trkpt lat="45.76634" lon="6.83875">
        <ele>2153</ele>
        <time>2021-05-11T11:50:46+02:00</time>
      </trkpt>
      <trkpt lat="45.76611" lon="6.83973">
        <ele>2150</ele>
        <time>2021-05-11T11:50:51+02:00</time>
      </trkpt>
      <trkpt lat="45.76601" lon="6.84112">
        <ele>2124</ele>
        <time>2021-05-11T11:50:56+02:00</time>
      </trkpt>
      <trkpt lat="45.7662" lon="6.84088">
        <ele>2121</ele>
        <time>2021-05-11T11:51:01+02:00</time>
      </trkpt>
      <trkpt lat="45.76634" lon="6.84048">
        <ele>2126</ele>
        <time>2021-05-11T11:51:06+02:00</time>
      </trkpt>
      <trkpt lat="45.76664" lon="6.84012">
        <ele>2121</ele>
        <time>2021-05-11T11:51:11+02:00</time>
      </trkpt>
      <trkpt lat="45.76701" lon="6.83997">
        <ele>2114</ele>
        <time>2021-05-11T11:51:16+02:00</time>
      </trkpt>
      <trkpt lat="45.76749" lon="6.84008">
        <ele>2096</ele>
        <time>2021-05-11T11:51:21+02:00</time>
      </trkpt>
      <trkpt lat="45.76797" lon="6.84001">
        <ele>2090</ele>
        <time>2021-05-11T11:51:26+02:00</time>
      </trkpt>
      <trkpt lat="45.76812" lon="6.84009">
        <ele>2086</ele>
        <time>2021-05-11T11:51:31+02:00</time>
      </trkpt>
      <trkpt lat="45.76796" lon="6.84029">
        <ele>2083</ele>
        <time>2021-05-11T11:51:36+02:00</time>
      </trkpt>
      <trkpt lat="45.76741" lon="6.84057">
        <ele>2084</ele>
        <time>2021-05-11T11:51:41+02:00</time>
      </trkpt>
      <trkpt lat="45.76766" lon="6.8407">
        <ele>2075</ele>
        <time>2021-05-11T11:51:46+02:00</time>
      </trkpt>
      <trkpt lat="45.76755" lon="6.84096">
        <ele>2070</ele>
        <time>2021-05-11T11:51:51+02:00</time>
      </trkpt>
      <trkpt lat="45.7673" lon="6.8414">
        <ele>2070</ele>
        <time>2021-05-11T11:51:56+02:00</time>
      </trkpt>
      <trkpt lat="45.7676" lon="6.84282">
        <ele>2048</ele>
        <time>2021-05-11T11:52:01+02:00</time>
      </trkpt>
      <trkpt lat="45.76751" lon="6.84371">
        <ele>2046</ele>
        <time>2021-05-11T11:52:06+02:00</time>
      </trkpt>
      <trkpt lat="45.76762" lon="6.84427">
        <ele>2037</ele>
        <time>2021-05-11T11:52:11+02:00</time>
      </trkpt>
      <trkpt lat="45.76755" lon="6.84483">
        <ele>2031</ele>
        <time>2021-05-11T11:52:16+02:00</time>
      </trkpt>
      <trkpt lat="45.7676" lon="6.84519">
        <ele>2026</ele>
        <time>2021-05-11T11:52:21+02:00</time>
      </trkpt>
      <trkpt lat="45.76749" lon="6.84545">
        <ele>2022</ele>
        <time>2021-05-11T11:52:26+02:00</time>
      </trkpt>
      <trkpt lat="45.7672" lon="6.84545">
        <ele>2034</ele>
        <time>2021-05-11T11:52:31+02:00</time>
      </trkpt>
      <trkpt lat="45.76759" lon="6.84597">
        <ele>2016</ele>
        <time>2021-05-11T11:52:36+02:00</time>
      </trkpt>
      <trkpt lat="45.76782" lon="6.84644">
        <ele>2011</ele>
        <time>2021-05-11T11:52:41+02:00</time>
      </trkpt>
      <trkpt lat="45.76837" lon="6.84709">
        <ele>1996</ele>
        <time>2021-05-11T11:52:46+02:00</time>
      </trkpt>
      <trkpt lat="45.76833" lon="6.84801">
        <ele>1992</ele>
        <time>2021-05-11T11:52:51+02:00</time>
      </trkpt>
      <trkpt lat="45.77139" lon="6.85883">
        <ele>1972</ele>
        <time>2021-05-11T11:52:56+02:00</time>
      </trkpt>
      <trkpt lat="45.77199" lon="6.86011">
        <ele>1971</ele>
        <time>2021-05-11T11:53:01+02:00</time>
      </trkpt>
      <trkpt lat="45.77236" lon="6.86083">
        <ele>1971</ele>
        <time>2021-05-11T11:53:06+02:00</time>
      </trkpt>
      <trkpt lat="45.77249" lon="6.86158">
        <ele>1971</ele>
        <time>2021-05-11T11:53:11+02:00</time>
      </trkpt>
      <trkpt lat="45.7725" lon="6.86311">
        <ele>1973</ele>
        <time>2021-05-11T11:53:16+02:00</time>
      </trkpt>
      <trkpt lat="45.77274" lon="6.86359">
        <ele>1972</ele>
        <time>2021-05-11T11:53:21+02:00</time>
      </trkpt>
      <trkpt lat="45.77291" lon="6.86427">
        <ele>1974</ele>
        <time>2021-05-11T11:53:26+02:00</time>
      </trkpt>
      <trkpt lat="45.77357" lon="6.86476">
        <ele>1965</ele>
        <time>2021-05-11T11:53:31+02:00</time>
      </trkpt>
      <trkpt lat="45.77377" lon="6.8651">
        <ele>1964</ele>
        <time>2021-05-11T11:53:36+02:00</time>
      </trkpt>
      <trkpt lat="45.77381" lon="6.86602">
        <ele>1970</ele>
        <time>2021-05-11T11:53:41+02:00</time>
      </trkpt>
      <trkpt lat="45.77401" lon="6.86679">
        <ele>1977</ele>
        <time>2021-05-11T11:53:46+02:00</time>
      </trkpt>
      <trkpt lat="45.77436" lon="6.86723">
        <ele>1974</ele>
        <time>2021-05-11T11:53:51+02:00</time>
      </trkpt>
      <trkpt lat="45.77495" lon="6.8686">
        <ele>1975</ele>
        <time>2021-05-11T11:53:56+02:00</time>
      </trkpt>
      <trkpt lat="45.77543" lon="6.87012">
        <ele>1979</ele>
        <time>2021-05-11T11:54:01+02:00</time>
      </trkpt>
      <trkpt lat="45.77531" lon="6.87181">
        <ele>2002</ele>
        <time>2021-05-11T11:54:06+02:00</time>
      </trkpt>
      <trkpt lat="45.77509" lon="6.87214">
        <ele>2013</ele>
        <time>2021-05-11T11:54:11+02:00</time>
      </trkpt>
      <trkpt lat="45.77487" lon="6.87274">
        <ele>2027</ele>
        <time>2021-05-11T11:54:16+02:00</time>
      </trkpt>
      <trkpt lat="45.77489" lon="6.87349">
        <ele>2028</ele>
        <time>2021-05-11T11:54:21+02:00</time>
      </trkpt>
      <trkpt lat="45.77455" lon="6.87459">
        <ele>2051</ele>
        <time>2021-05-11T11:54:26+02:00</time>
      </trkpt>
      <trkpt lat="45.77452" lon="6.87532">
        <ele>2062</ele>
        <time>2021-05-11T11:54:31+02:00</time>
      </trkpt>
      <trkpt lat="45.77475" lon="6.87579">
        <ele>2065</ele>
        <time>2021-05-11T11:54:36+02:00</time>
      </trkpt>
      <trkpt lat="45.77497" lon="6.87617">
        <ele>2067</ele>
        <time>2021-05-11T11:54:41+02:00</time>
      </trkpt>
      <trkpt lat="45.77506" lon="6.87675">
        <ele>2073</ele>
        <time>2021-05-11T11:54:46+02:00</time>
      </trkpt>
      <trkpt lat="45.77487" lon="6.87693">
        <ele>2081</ele>
        <time>2021-05-11T11:54:51+02:00</time>
      </trkpt>
      <trkpt lat="45.77451" lon="6.87669">
        <ele>2099</ele>
        <time>2021-05-11T11:54:56+02:00</time>
      </trkpt>
      <trkpt lat="45.77436" lon="6.87667">
        <ele>2105</ele>
        <time>2021-05-11T11:55:01+02:00</time>
      </trkpt>
      <trkpt lat="45.77429" lon="6.87726">
        <ele>2111</ele>
        <time>2021-05-11T11:55:06+02:00</time>
      </trkpt>
      <trkpt lat="45.77386" lon="6.87737">
        <ele>2131</ele>
        <time>2021-05-11T11:55:11+02:00</time>
      </trkpt>
      <trkpt lat="45.77377" lon="6.8779">
        <ele>2134</ele>
        <time>2021-05-11T11:55:16+02:00</time>
      </trkpt>
      <trkpt lat="45.77325" lon="6.87832">
        <ele>2159</ele>
        <time>2021-05-11T11:55:21+02:00</time>
      </trkpt>
      <trkpt lat="45.77303" lon="6.87957">
        <ele>2173</ele>
        <time>2021-05-11T11:55:26+02:00</time>
      </trkpt>
      <trkpt lat="45.77262" lon="6.88007">
        <ele>2185</ele>
        <time>2021-05-11T11:55:31+02:00</time>
      </trkpt>
      <trkpt lat="45.77214" lon="6.88047">
        <ele>2206</ele>
        <time>2021-05-11T11:55:36+02:00</time>
      </trkpt>
      <trkpt lat="45.77177" lon="6.88102">
        <ele>2222</ele>
        <time>2021-05-11T11:55:41+02:00</time>
      </trkpt>
      <trkpt lat="45.77123" lon="6.88141">
        <ele>2236</ele>
        <time>2021-05-11T11:55:46+02:00</time>
      </trkpt>
      <trkpt lat="45.77069" lon="6.88232">
        <ele>2256</ele>
        <time>2021-05-11T11:55:51+02:00</time>
      </trkpt>
      <trkpt lat="45.76933" lon="6.8831">
        <ele>2283</ele>
        <time>2021-05-11T11:55:56+02:00</time>
      </trkpt>
      <trkpt lat="45.76896" lon="6.88335">
        <ele>2292</ele>
        <time>2021-05-11T11:56:01+02:00</time>
      </trkpt>
      <trkpt lat="45.76844" lon="6.88465">
        <ele>2320</ele>
        <time>2021-05-11T11:56:06+02:00</time>
      </trkpt>
      <trkpt lat="45.76834" lon="6.88517">
        <ele>2329</ele>
        <time>2021-05-11T11:56:11+02:00</time>
      </trkpt>
      <trkpt lat="45.76771" lon="6.88653">
        <ele>2346</ele>
        <time>2021-05-11T11:56:16+02:00</time>
      </trkpt>
      <trkpt lat="45.76769" lon="6.88671">
        <ele>2350</ele>
        <time>2021-05-11T11:56:21+02:00</time>
      </trkpt>
      <trkpt lat="45.76794" lon="6.88672">
        <ele>2357</ele>
        <time>2021-05-11T11:56:26+02:00</time>
      </trkpt>
      <trkpt lat="45.76818" lon="6.88684">
        <ele>2367</ele>
        <time>2021-05-11T11:56:31+02:00</time>
      </trkpt>
      <trkpt lat="45.76938" lon="6.88652">
        <ele>2363</ele>
        <time>2021-05-11T11:56:36+02:00</time>
      </trkpt>
      <trkpt lat="45.76957" lon="6.88728">
        <ele>2377</ele>
        <time>2021-05-11T11:56:41+02:00</time>
      </trkpt>
      <trkpt lat="45.77017" lon="6.88823">
        <ele>2389</ele>
        <time>2021-05-11T11:56:46+02:00</time>
      </trkpt>
      <trkpt lat="45.77087" lon="6.88916">
        <ele>2415</ele>
        <time>2021-05-11T11:56:51+02:00</time>
      </trkpt>
      <trkpt lat="45.77205" lon="6.88955">
        <ele>2418</ele>
        <time>2021-05-11T11:56:56+02:00</time>
      </trkpt>
      <trkpt lat="45.77223" lon="6.88992">
        <ele>2415</ele>
        <time>2021-05-11T11:57:01+02:00</time>
      </trkpt>
      <trkpt lat="45.77223" lon="6.89016">
        <ele>2413</ele>
        <time>2021-05-11T11:57:06+02:00</time>
      </trkpt>
      <trkpt lat="45.77198" lon="6.89067">
        <ele>2413</ele>
        <time>2021-05-11T11:57:11+02:00</time>
      </trkpt>
      <trkpt lat="45.77212" lon="6.89093">
        <ele>2400</ele>
        <time>2021-05-11T11:57:16+02:00</time>
      </trkpt>
      <trkpt lat="45.77237" lon="6.89103">
        <ele>2386</ele>
        <time>2021-05-11T11:57:21+02:00</time>
      </trkpt>
      <trkpt lat="45.77125" lon="6.89262">
        <ele>2349</ele>
        <time>2021-05-11T11:57:26+02:00</time>
      </trkpt>
      <trkpt lat="45.77073" lon="6.89344">
        <ele>2352</ele>
        <time>2021-05-11T11:57:31+02:00</time>
      </trkpt>
      <trkpt lat="45.77045" lon="6.89508">
        <ele>2331</ele>
        <time>2021-05-11T11:57:36+02:00</time>
      </trkpt>
      <trkpt lat="45.77045" lon="6.89677">
        <ele>2327</ele>
        <time>2021-05-11T11:57:41+02:00</time>
      </trkpt>
      <trkpt lat="45.7707" lon="6.8975">
        <ele>2329</ele>
        <time>2021-05-11T11:57:46+02:00</time>
      </trkpt>
      <trkpt lat="45.77109" lon="6.89799">
        <ele>2325</ele>
        <time>2021-05-11T11:57:51+02:00</time>
      </trkpt>
      <trkpt lat="45.77124" lon="6.89857">
        <ele>2329</ele>
        <time>2021-05-11T11:57:56+02:00</time>
      </trkpt>
      <trkpt lat="45.77139" lon="6.89957">
        <ele>2339</ele>
        <time>2021-05-11T11:58:01+02:00</time>
      </trkpt>
      <trkpt lat="45.77177" lon="6.90027">
        <ele>2342</ele>
        <time>2021-05-11T11:58:06+02:00</time>
      </trkpt>
      <trkpt lat="45.77225" lon="6.90076">
        <ele>2334</ele>
        <time>2021-05-11T11:58:11+02:00</time>
      </trkpt>
      <trkpt lat="45.77243" lon="6.90129">
        <ele>2330</ele>
        <time>2021-05-11T11:58:16+02:00</time>
      </trkpt>
      <trkpt lat="45.77272" lon="6.90155">
        <ele>2328</ele>
        <time>2021-05-11T11:58:21+02:00</time>
      </trkpt>
      <trkpt lat="45.7736" lon="6.90305">
        <ele>2323</ele>
        <time>2021-05-11T11:58:26+02:00</time>
      </trkpt>
      <trkpt lat="45.77493" lon="6.90356">
        <ele>2303</ele>
        <time>2021-05-11T11:58:31+02:00</time>
      </trkpt>
      <trkpt lat="45.77519" lon="6.90413">
        <ele>2291</ele>
        <time>2021-05-11T11:58:36+02:00</time>
      </trkpt>
      <trkpt lat="45.77538" lon="6.90506">
        <ele>2293</ele>
        <time>2021-05-11T11:58:41+02:00</time>
      </trkpt>
      <trkpt lat="45.77643" lon="6.90547">
        <ele>2282</ele>
        <time>2021-05-11T11:58:46+02:00</time>
      </trkpt>
      <trkpt lat="45.77664" lon="6.90587">
        <ele>2292</ele>
        <time>2021-05-11T11:58:51+02:00</time>
      </trkpt>
      <trkpt lat="45.77756" lon="6.90617">
        <ele>2279</ele>
        <time>2021-05-11T11:58:56+02:00</time>
      </trkpt>
      <trkpt lat="45.77823" lon="6.90643">
        <ele>2263</ele>
        <time>2021-05-11T11:59:01+02:00</time>
      </trkpt>
      <trkpt lat="45.77914" lon="6.90778">
        <ele>2239</ele>
        <time>2021-05-11T11:59:06+02:00</time>
      </trkpt>
      <trkpt lat="45.77998" lon="6.90929">
        <ele>2215</ele>
        <time>2021-05-11T11:59:11+02:00</time>
      </trkpt>
      <trkpt lat="45.78009" lon="6.91002">
        <ele>2203</ele>
        <time>2021-05-11T11:59:16+02:00</time>
      </trkpt>
      <trkpt lat="45.77999" lon="6.91083">
        <ele>2198</ele>
        <time>2021-05-11T11:59:21+02:00</time>
      </trkpt>
      <trkpt lat="45.7802" lon="6.91113">
        <ele>2192</ele>
        <time>2021-05-11T11:59:26+02:00</time>
      </trkpt>
      <trkpt lat="45.78038" lon="6.91151">
        <ele>2189</ele>
        <time>2021-05-11T11:59:31+02:00</time>
      </trkpt>
      <trkpt lat="45.78078" lon="6.91165">
        <ele>2173</ele>
        <time>2021-05-11T11:59:36+02:00</time>
      </trkpt>
      <trkpt lat="45.78092" lon="6.91185">
        <ele>2169</ele>
        <time>2021-05-11T11:59:41+02:00</time>
      </trkpt>
      <trkpt lat="45.78094" lon="6.91237">
        <ele>2171</ele>
        <time>2021-05-11T11:59:46+02:00</time>
      </trkpt>
      <trkpt lat="45.78102" lon="6.91318">
        <ele>2167</ele>
        <time>2021-05-11T11:59:51+02:00</time>
      </trkpt>
      <trkpt lat="45.78142" lon="6.91408">
        <ele>2170</ele>
        <time>2021-05-11T11:59:56+02:00</time>
      </trkpt>
      <trkpt lat="45.78264" lon="6.91528">
        <ele>2162</ele>
        <time>2021-05-11T12:00:01+02:00</time>
      </trkpt>
      <trkpt lat="45.78295" lon="6.91573">
        <ele>2161</ele>
        <time>2021-05-11T12:00:06+02:00</time>
      </trkpt>
      <trkpt lat="45.78315" lon="6.91639">
        <ele>2163</ele>
        <time>2021-05-11T12:00:11+02:00</time>
      </trkpt>
      <trkpt lat="45.78364" lon="6.91689">
        <ele>2158</ele>
        <time>2021-05-11T12:00:16+02:00</time>
      </trkpt>
      <trkpt lat="45.7839" lon="6.91785">
        <ele>2159</ele>
        <time>2021-05-11T12:00:21+02:00</time>
      </trkpt>
      <trkpt lat="45.7846" lon="6.92034">
        <ele>2169</ele>
        <time>2021-05-11T12:00:26+02:00</time>
      </trkpt>
      <trkpt lat="45.78537" lon="6.92093">
        <ele>2146</ele>
        <time>2021-05-11T12:00:31+02:00</time>
      </trkpt>
      <trkpt lat="45.78611" lon="6.92168">
        <ele>2115</ele>
        <time>2021-05-11T12:00:36+02:00</time>
      </trkpt>
      <trkpt lat="45.78687" lon="6.92306">
        <ele>2078</ele>
        <time>2021-05-11T12:00:41+02:00</time>
      </trkpt>
      <trkpt lat="45.78774" lon="6.92493">
        <ele>2030</ele>
        <time>2021-05-11T12:00:46+02:00</time>
      </trkpt>
      <trkpt lat="45.78815" lon="6.92594">
        <ele>2020</ele>
        <time>2021-05-11T12:00:51+02:00</time>
      </trkpt>
      <trkpt lat="45.7889" lon="6.92723">
        <ele>1999</ele>
        <time>2021-05-11T12:00:56+02:00</time>
      </trkpt>
      <trkpt lat="45.78926" lon="6.928">
        <ele>1991</ele>
        <time>2021-05-11T12:01:01+02:00</time>
      </trkpt>
      <trkpt lat="45.78966" lon="6.92903">
        <ele>1990</ele>
        <time>2021-05-11T12:01:06+02:00</time>
      </trkpt>
      <trkpt lat="45.79013" lon="6.92991">
        <ele>1976</ele>
        <time>2021-05-11T12:01:11+02:00</time>
      </trkpt>
      <trkpt lat="45.79097" lon="6.93087">
        <ele>1959</ele>
        <time>2021-05-11T12:01:16+02:00</time>
      </trkpt>
      <trkpt lat="45.79076" lon="6.93194">
        <ele>1958</ele>
        <time>2021-05-11T12:01:21+02:00</time>
      </trkpt>
      <trkpt lat="45.79117" lon="6.93294">
        <ele>1965</ele>
        <time>2021-05-11T12:01:26+02:00</time>
      </trkpt>
      <trkpt lat="45.7914" lon="6.93391">
        <ele>1958</ele>
        <time>2021-05-11T12:01:31+02:00</time>
      </trkpt>
      <trkpt lat="45.79149" lon="6.93487">
        <ele>1940</ele>
        <time>2021-05-11T12:01:36+02:00</time>
      </trkpt>
      <trkpt lat="45.79163" lon="6.93527">
        <ele>1931</ele>
        <time>2021-05-11T12:01:41+02:00</time>
      </trkpt>
      <trkpt lat="45.79199" lon="6.93549">
        <ele>1930</ele>
        <time>2021-05-11T12:01:46+02:00</time>
      </trkpt>
      <trkpt lat="45.79225" lon="6.93586">
        <ele>1921</ele>
        <time>2021-05-11T12:01:51+02:00</time>
      </trkpt>
      <trkpt lat="45.79279" lon="6.93614">
        <ele>1924</ele>
        <time>2021-05-11T12:01:56+02:00</time>
      </trkpt>
      <trkpt lat="45.79323" lon="6.93662">
        <ele>1919</ele>
        <time>2021-05-11T12:02:01+02:00</time>
      </trkpt>
      <trkpt lat="45.79287" lon="6.93677">
        <ele>1904</ele>
        <time>2021-05-11T12:02:06+02:00</time>
      </trkpt>
      <trkpt lat="45.79261" lon="6.93713">
        <ele>1889</ele>
        <time>2021-05-11T12:02:11+02:00</time>
      </trkpt>
      <trkpt lat="45.79215" lon="6.9375">
        <ele>1874</ele>
        <time>2021-05-11T12:02:16+02:00</time>
      </trkpt>
      <trkpt lat="45.79178" lon="6.9376">
        <ele>1867</ele>
        <time>2021-05-11T12:02:21+02:00</time>
      </trkpt>
      <trkpt lat="45.79173" lon="6.93794">
        <ele>1857</ele>
        <time>2021-05-11T12:02:26+02:00</time>
      </trkpt>
      <trkpt lat="45.79183" lon="6.93823">
        <ele>1851</ele>
        <time>2021-05-11T12:02:31+02:00</time>
      </trkpt>
      <trkpt lat="45.79173" lon="6.93924">
        <ele>1829</ele>
        <time>2021-05-11T12:02:36+02:00</time>
      </trkpt>
      <trkpt lat="45.7919" lon="6.93999">
        <ele>1826</ele>
        <time>2021-05-11T12:02:41+02:00</time>
      </trkpt>
      <trkpt lat="45.79201" lon="6.94084">
        <ele>1825</ele>
        <time>2021-05-11T12:02:46+02:00</time>
      </trkpt>
      <trkpt lat="45.79221" lon="6.94429">
        <ele>1767</ele>
        <time>2021-05-11T12:02:51+02:00</time>
      </trkpt>
      <trkpt lat="45.79187" lon="6.94649">
        <ele>1723</ele>
        <time>2021-05-11T12:02:56+02:00</time>
      </trkpt>
      <trkpt lat="45.79166" lon="6.9463">
        <ele>1713</ele>
        <time>2021-05-11T12:03:01+02:00</time>
      </trkpt>
      <trkpt lat="45.79159" lon="6.94584">
        <ele>1716</ele>
        <time>2021-05-11T12:03:06+02:00</time>
      </trkpt>
      <trkpt lat="45.79134" lon="6.94558">
        <ele>1710</ele>
        <time>2021-05-11T12:03:11+02:00</time>
      </trkpt>
      <trkpt lat="45.79119" lon="6.94532">
        <ele>1708</ele>
        <time>2021-05-11T12:03:16+02:00</time>
      </trkpt>
      <trkpt lat="45.79089" lon="6.9453">
        <ele>1696</ele>
        <time>2021-05-11T12:03:21+02:00</time>
      </trkpt>
      <trkpt lat="45.79079" lon="6.94583">
        <ele>1690</ele>
        <time>2021-05-11T12:03:26+02:00</time>
      </trkpt>
      <trkpt lat="45.79062" lon="6.94568">
        <ele>1685</ele>
        <time>2021-05-11T12:03:31+02:00</time>
      </trkpt>
      <trkpt lat="45.79041" lon="6.94527">
        <ele>1684</ele>
        <time>2021-05-11T12:03:36+02:00</time>
      </trkpt>
      <trkpt lat="45.79016" lon="6.945">
        <ele>1683</ele>
        <time>2021-05-11T12:03:41+02:00</time>
      </trkpt>
      <trkpt lat="45.78976" lon="6.94491">
        <ele>1683</ele>
        <time>2021-05-11T12:03:46+02:00</time>
      </trkpt>
      <trkpt lat="45.78945" lon="6.94507">
        <ele>1683</ele>
        <time>2021-05-11T12:03:51+02:00</time>
      </trkpt>
      <trkpt lat="45.78931" lon="6.94572">
        <ele>1662</ele>
        <time>2021-05-11T12:03:56+02:00</time>
      </trkpt>
      <trkpt lat="45.78934" lon="6.94554">
        <ele>1668</ele>
        <time>2021-05-11T12:04:01+02:00</time>
      </trkpt>
      <trkpt lat="45.78954" lon="6.94536">
        <ele>1674</ele>
        <time>2021-05-11T12:04:06+02:00</time>
      </trkpt>
      <trkpt lat="45.78981" lon="6.94542">
        <ele>1671</ele>
        <time>2021-05-11T12:04:11+02:00</time>
      </trkpt>
      <trkpt lat="45.79004" lon="6.94578">
        <ele>1665</ele>
        <time>2021-05-11T12:04:16+02:00</time>
      </trkpt>
      <trkpt lat="45.79023" lon="6.94654">
        <ele>1651</ele>
        <time>2021-05-11T12:04:21+02:00</time>
      </trkpt>
      <trkpt lat="45.79029" lon="6.94775">
        <ele>1626</ele>
        <time>2021-05-11T12:04:26+02:00</time>
      </trkpt>
      <trkpt lat="45.79034" lon="6.9487">
        <ele>1604</ele>
        <time>2021-05-11T12:04:31+02:00</time>
      </trkpt>
      <trkpt lat="45.79066" lon="6.94897">
        <ele>1610</ele>
        <time>2021-05-11T12:04:36+02:00</time>
      </trkpt>
      <trkpt lat="45.79088" lon="6.94958">
        <ele>1598</ele>
        <time>2021-05-11T12:04:41+02:00</time>
      </trkpt>
      <trkpt lat="45.79095" lon="6.95019">
        <ele>1583</ele>
        <time>2021-05-11T12:04:46+02:00</time>
      </trkpt>
      <trkpt lat="45.79062" lon="6.9499">
        <ele>1574</ele>
        <time>2021-05-11T12:04:51+02:00</time>
      </trkpt>
      <trkpt lat="45.79026" lon="6.94929">
        <ele>1579</ele>
        <time>2021-05-11T12:04:56+02:00</time>
      </trkpt>
      <trkpt lat="45.79019" lon="6.94945">
        <ele>1570</ele>
        <time>2021-05-11T12:05:01+02:00</time>
      </trkpt>
      <trkpt lat="45.79029" lon="6.94998">
        <ele>1557</ele>
        <time>2021-05-11T12:05:06+02:00</time>
      </trkpt>
      <trkpt lat="45.79029" lon="6.95037">
        <ele>1546</ele>
        <time>2021-05-11T12:05:11+02:00</time>
      </trkpt>
      <trkpt lat="45.79027" lon="6.95067">
        <ele>1536</ele>
        <time>2021-05-11T12:05:16+02:00</time>
      </trkpt>
      <trkpt lat="45.79043" lon="6.95088">
        <ele>1537</ele>
        <time>2021-05-11T12:05:21+02:00</time>
      </trkpt>
      <trkpt lat="45.79072" lon="6.95111">
        <ele>1545</ele>
        <time>2021-05-11T12:05:26+02:00</time>
      </trkpt>
      <trkpt lat="45.79088" lon="6.95162">
        <ele>1544</ele>
        <time>2021-05-11T12:05:31+02:00</time>
      </trkpt>
      <trkpt lat="45.79068" lon="6.9526">
        <ele>1517</ele>
        <time>2021-05-11T12:05:36+02:00</time>
      </trkpt>
      <trkpt lat="45.79059" lon="6.95335">
        <ele>1503</ele>
        <time>2021-05-11T12:05:41+02:00</time>
      </trkpt>
      <trkpt lat="45.79065" lon="6.95406">
        <ele>1493</ele>
        <time>2021-05-11T12:05:46+02:00</time>
      </trkpt>
      <trkpt lat="45.79044" lon="6.95489">
        <ele>1456</ele>
        <time>2021-05-11T12:05:51+02:00</time>
      </trkpt>
      <trkpt lat="45.79107" lon="6.95581">
        <ele>1416</ele>
        <time>2021-05-11T12:05:56+02:00</time>
      </trkpt>
      <trkpt lat="45.79137" lon="6.9559">
        <ele>1413</ele>
        <time>2021-05-11T12:06:01+02:00</time>
      </trkpt>
      <trkpt lat="45.79137" lon="6.95613">
        <ele>1401</ele>
        <time>2021-05-11T12:06:06+02:00</time>
      </trkpt>
      <trkpt lat="45.79113" lon="6.95628">
        <ele>1392</ele>
        <time>2021-05-11T12:06:11+02:00</time>
      </trkpt>
      <trkpt lat="45.79131" lon="6.95651">
        <ele>1381</ele>
        <time>2021-05-11T12:06:16+02:00</time>
      </trkpt>
      <trkpt lat="45.79103" lon="6.95675">
        <ele>1366</ele>
        <time>2021-05-11T12:06:21+02:00</time>
      </trkpt>
      <trkpt lat="45.79055" lon="6.95698">
        <ele>1357</ele>
        <time>2021-05-11T12:06:26+02:00</time>
      </trkpt>
      <trkpt lat="45.79067" lon="6.95712">
        <ele>1350</ele>
        <time>2021-05-11T12:06:31+02:00</time>
      </trkpt>
      <trkpt lat="45.79048" lon="6.95737">
        <ele>1341</ele>
        <time>2021-05-11T12:06:36+02:00</time>
      </trkpt>
      <trkpt lat="45.79106" lon="6.95747">
        <ele>1334</ele>
        <time>2021-05-11T12:06:41+02:00</time>
      </trkpt>
      <trkpt lat="45.79061" lon="6.95764">
        <ele>1329</ele>
        <time>2021-05-11T12:06:46+02:00</time>
      </trkpt>
      <trkpt lat="45.79104" lon="6.95775">
        <ele>1323</ele>
        <time>2021-05-11T12:06:51+02:00</time>
      </trkpt>
      <trkpt lat="45.79058" lon="6.95809">
        <ele>1314</ele>
        <time>2021-05-11T12:06:56+02:00</time>
      </trkpt>
      <trkpt lat="45.79033" lon="6.95844">
        <ele>1303</ele>
        <time>2021-05-11T12:07:01+02:00</time>
      </trkpt>
      <trkpt lat="45.78984" lon="6.95877">
        <ele>1294</ele>
        <time>2021-05-11T12:07:06+02:00</time>
      </trkpt>
      <trkpt lat="45.78953" lon="6.95891">
        <ele>1288</ele>
        <time>2021-05-11T12:07:11+02:00</time>
      </trkpt>
      <trkpt lat="45.78925" lon="6.95913">
        <ele>1279</ele>
        <time>2021-05-11T12:07:16+02:00</time>
      </trkpt>
      <trkpt lat="45.78889" lon="6.95915">
        <ele>1274</ele>
        <time>2021-05-11T12:07:21+02:00</time>
      </trkpt>
      <trkpt lat="45.78874" lon="6.95966">
        <ele>1263</ele>
        <time>2021-05-11T12:07:26+02:00</time>
      </trkpt>
      <trkpt lat="45.78877" lon="6.96056">
        <ele>1250</ele>
        <time>2021-05-11T12:07:31+02:00</time>
      </trkpt>
      <trkpt lat="45.78904" lon="6.962">
        <ele>1237</ele>
        <time>2021-05-11T12:07:36+02:00</time>
      </trkpt>
      <trkpt lat="45.78947" lon="6.96299">
        <ele>1227</ele>
        <time>2021-05-11T12:07:41+02:00</time>
      </trkpt>
      <trkpt lat="45.78982" lon="6.96367">
        <ele>1220</ele>
        <time>2021-05-11T12:07:46+02:00</time>
      </trkpt>
      <trkpt lat="45.78999" lon="6.96435">
        <ele>1214</ele>
        <time>2021-05-11T12:07:51+02:00</time>
      </trkpt>
      <trkpt lat="45.79105" lon="6.9643">
        <ele>1211</ele>
        <time>2021-05-11T12:07:56+02:00</time>
      </trkpt>
      <trkpt lat="45.7915" lon="6.96419">
        <ele>1209</ele>
        <time>2021-05-11T12:08:01+02:00</time>
      </trkpt>
      <trkpt lat="45.79209" lon="6.96383">
        <ele>1208</ele>
        <time>2021-05-11T12:08:06+02:00</time>
      </trkpt>
      <trkpt lat="45.79255" lon="6.96338">
        <ele>1211</ele>
        <time>2021-05-11T12:08:11+02:00</time>
      </trkpt>
      <trkpt lat="45.79278" lon="6.96407">
        <ele>1202</ele>
        <time>2021-05-11T12:08:16+02:00</time>
      </trkpt>
      <trkpt lat="45.79284" lon="6.965">
        <ele>1193</ele>
        <time>2021-05-11T12:08:21+02:00</time>
      </trkpt>
      <trkpt lat="45.79249" lon="6.965">
        <ele>1194</ele>
        <time>2021-05-11T12:08:26+02:00</time>
      </trkpt>
      <trkpt lat="45.79213" lon="6.96521">
        <ele>1195</ele>
        <time>2021-05-11T12:08:31+02:00</time>
      </trkpt>
      <trkpt lat="45.79222" lon="6.96618">
        <ele>1185</ele>
        <time>2021-05-11T12:08:36+02:00</time>
      </trkpt>
      <trkpt lat="45.7928" lon="6.96718">
        <ele>1177</ele>
        <time>2021-05-11T12:08:41+02:00</time>
      </trkpt>
      <trkpt lat="45.79281" lon="6.96782">
        <ele>1181</ele>
        <time>2021-05-11T12:08:46+02:00</time>
      </trkpt>
      <trkpt lat="45.79222" lon="6.96859">
        <ele>1190</ele>
        <time>2021-05-11T12:08:51+02:00</time>
      </trkpt>
      <trkpt lat="45.79189" lon="6.969">
        <ele>1195</ele>
        <time>2021-05-11T12:08:56+02:00</time>
      </trkpt>
      <trkpt lat="45.79146" lon="6.96918">
        <ele>1196</ele>
        <time>2021-05-11T12:09:01+02:00</time>
      </trkpt>
      <trkpt lat="45.79106" lon="6.9705">
        <ele>1209</ele>
        <time>2021-05-11T12:09:06+02:00</time>
      </trkpt>
      <trkpt lat="45.79142" lon="6.97098">
        <ele>1214</ele>
        <time>2021-05-11T12:09:11+02:00</time>
      </trkpt>
    </trkseg>
  </trk>
</gpx>